Ashaway, Rhode Island
Current Conditions -  °F | °C
As of 2:53 AM on Saturday 01 Nov 2014 (Local Time) from KWST Reporting Station
Overcast Overcast  
Wind Chill: 44°   Ceiling: 5500
Heat Index: 49°   Visibility: 10mi
Dew Point: 36°   Wind: 14mph
Humidity: 61%   Direction: 30°NNE
Pressure: 29.86"   Gusts: 22mph
Location:  41.43°N, 71.79°W
Report Text: KWST 010653Z AUTO 03012G19KT 360V060 10SM OVC055 09/02 A2986 RMK AO2 SLP110 T00940022
Loading
Personal Weather Stations






























Interactive Weather Map
Tropical Storm Tracking
New forecast layout! Learn more

10-Day Weather Forecast

Advertisements
Track Severe Weather on mobile